| time (UTC) | temp F | wind direction | speed MPH | gust MPH | rain 1hr in | rain 24hr in | rain mn in | humidity % | barometer mb |
| 20260509033325 | 74 | 5 | 0.0 | 0.0 | 0.00 | 0.52 | 0.52 | 92 | 1016.4 |
| 20260509032824 | 74 | 5 | 0.0 | 0.0 | 0.00 | 0.52 | 0.52 | 92 | 1016.5 |
| 20260509032325 | 74 | 5 | 0.0 | 0.0 | 0.00 | 0.52 | 0.52 | 92 | 1016.5 |
| 20260509031827 | 74 | 5 | 0.0 | 0.0 | 0.00 | 0.52 | 0.52 | 92 | 1016.5 |
| 20260509031354 | 74 | 5 | 0.0 | 0.0 | 0.00 | 0.52 | 0.52 | 92 | 1016.6 |
| 20260509030840 | 74 | 5 | 0.0 | 0.0 | 0.00 | 0.52 | 0.52 | 92 | 1016.5 |
| 20260509030344 | 74 | 5 | 0.0 | 0.0 | 0.00 | 0.52 | 0.52 | 92 | 1016.6 |
| 20260509025825 | 74 | 5 | 0.0 | 0.0 | 0.00 | 0.52 | 0.52 | 92 | 1016.6 |
| 20260509025355 | 74 | 5 | 0.0 | 0.0 | 0.00 | 0.52 | 0.52 | 92 | 1016.5 |
| 20260509024837 | 74 | 5 | 0.0 | 0.0 | 0.00 | 0.52 | 0.52 | 92 | 1016.6 |
| 20260509024341 | 74 | 5 | 0.0 | 0.0 | 0.00 | 0.52 | 0.52 | 92 | 1016.6 |
| 20260509023842 | 75 | 5 | 0.0 | 0.0 | 0.00 | 0.52 | 0.52 | 91 | 1016.6 |
| 20260509023343 | 75 | 5 | 0.0 | 1.0 | 0.00 | 0.52 | 0.52 | 91 | 1016.5 |
| 20260509022845 | 75 | 5 | 0.0 | 1.0 | 0.00 | 0.52 | 0.52 | 91 | 1016.5 |
| 20260509022345 | 75 | 5 | 0.0 | 1.0 | 0.00 | 0.52 | 0.52 | 91 | 1016.4 |
| 20260509021843 | 75 | 5 | 0.0 | 1.0 | 0.00 | 0.52 | 0.52 | 91 | 1016.4 |
| 20260509021324 | 75 | 5 | 0.0 | 0.0 | 0.00 | 0.52 | 0.52 | 91 | 1016.2 |
| 20260509020827 | 75 | 5 | 0.0 | 0.0 | 0.00 | 0.52 | 0.52 | 91 | 1016.1 |
| 20260509020331 | 75 | 5 | 0.0 | 0.0 | 0.00 | 0.52 | 0.52 | 91 | 1016.1 |
| 20260509015834 | 75 | 5 | 0.0 | 0.0 | 0.00 | 0.52 | 0.52 | 91 | 1016.0 |
| 20260509015333 | 75 | 14 | 0.0 | 0.0 | 0.00 | 0.52 | 0.52 | 91 | 1016.0 |
| 20260509014832 | 75 | 14 | 0.0 | 0.0 | 0.00 | 0.52 | 0.52 | 91 | 1016.0 |
| 20260509014343 | 75 | 5 | 0.0 | 1.0 | 0.00 | 0.52 | 0.52 | 91 | 1016.0 |
| 20260509013826 | 75 | 5 | 0.0 | 1.0 | 0.00 | 0.52 | 0.52 | 91 | 1015.9 |
| 20260509013356 | 76 | 5 | 0.0 | 1.0 | 0.00 | 0.52 | 0.52 | 91 | 1015.9 |
| 20260509012834 | 76 | 5 | 0.0 | 1.0 | 0.00 | 0.52 | 0.52 | 91 | 1015.7 |
| 20260509012336 | 76 | 24 | 0.0 | 2.0 | 0.01 | 0.52 | 0.52 | 90 | 1015.6 |
| 20260509011833 | 76 | 24 | 0.0 | 2.0 | 0.05 | 0.52 | 0.52 | 90 | 1015.6 |
| 20260509011335 | 76 | 5 | 0.0 | 4.0 | 0.32 | 0.52 | 0.52 | 90 | 1015.6 |
| 20260509010839 | 76 | 331 | 0.0 | 3.0 | 0.43 | 0.52 | 0.52 | 90 | 1015.5 |
| 20260509010409 | 76 | 57 | 0.0 | 10.0 | 0.49 | 0.52 | 0.52 | 89 | 1015.3 |
| 20260509005848 | 76 | 72 | 0.0 | 10.0 | 0.52 | 0.52 | 0.52 | 89 | 1015.3 |
| 20260509005358 | 77 | 43 | 0.0 | 4.0 | 0.52 | 0.52 | 0.52 | 88 | 1015.3 |
| 20260509004838 | 77 | 351 | 1.0 | 3.0 | 0.52 | 0.52 | 0.52 | 87 | 1014.9 |
| 20260509004332 | 78 | 344 | 1.0 | 5.0 | 0.52 | 0.52 | 0.52 | 87 | 1014.5 |
| 20260509003902 | 79 | 40 | 1.0 | 5.0 | 0.52 | 0.52 | 0.52 | 86 | 1014.4 |
| 20260509003346 | 79 | 28 | 0.0 | 3.0 | 0.52 | 0.52 | 0.52 | 85 | 1014.5 |
| 20260509002846 | 80 | 27 | 0.0 | 8.0 | 0.52 | 0.52 | 0.52 | 84 | 1014.6 |
| 20260509002329 | 80 | 355 | 1.0 | 12.0 | 0.51 | 0.51 | 0.51 | 80 | 1014.4 |
| 20260509001838 | 82 | 247 | 2.0 | 12.0 | 0.47 | 0.47 | 0.47 | 80 | 1015.0 |
| 20260509001338 | 85 | 273 | 3.0 | 8.0 | 0.20 | 0.20 | 0.20 | 75 | 1014.7 |
| 20260509000846 | 87 | 344 | 1.0 | 8.0 | 0.07 | 0.07 | 0.07 | 73 | 1014.1 |
| 20260509000348 | 88 | 130 | 2.0 | 9.0 | 0.03 | 0.03 | 0.03 | 67 | 1013.6 |
| 20260508235849 | 89 | 109 | 1.0 | 7.0 | 0.00 | 0.00 | 0.00 | 62 | 1013.3 |
| 20260508235349 | 90 | 119 | 3.0 | 7.0 | 0.00 | 0.00 | 0.00 | 61 | 1013.4 |
| 20260508234831 | 91 | 130 | 1.0 | 3.0 | 0.00 | 0.00 | 0.00 | 53 | 1013.2 |
| 20260508234333 | 91 | 203 | 0.0 | 3.0 | 0.00 | 0.00 | 0.00 | 52 | 1013.0 |
| 20260508233834 | 92 | 306 | 0.0 | 3.0 | 0.00 | 0.00 | 0.00 | 52 | 1013.1 |
| 20260508233333 | 92 | 319 | 0.0 | 1.0 | 0.00 | 0.00 | 0.00 | 52 | 1013.0 |
| 20260508232902 | 92 | 273 | 0.0 | 3.0 | 0.00 | 0.00 | 0.00 | 51 | 1013.0 |
| 20260508232342 | 92 | 247 | 1.0 | 4.0 | 0.00 | 0.00 | 0.00 | 51 | 1012.9 |
| 20260508231825 | 92 | 250 | 0.0 | 6.0 | 0.00 | 0.00 | 0.00 | 50 | 1012.9 |
| 20260508231353 | 92 | 277 | 1.0 | 6.0 | 0.00 | 0.00 | 0.00 | 49 | 1012.8 |
| 20260508230833 | 93 | 250 | 2.0 | 7.0 | 0.00 | 0.00 | 0.00 | 50 | 1012.7 |
| 20260508230333 | 93 | 258 | 2.0 | 7.0 | 0.00 | 0.00 | 0.00 | 49 | 1012.7 |
| 20260508225833 | 93 | 40 | 2.0 | 7.0 | 0.00 | 0.00 | 0.00 | 50 | 1012.6 |
| 20260508225404 | 93 | 219 | 1.0 | 6.0 | 0.00 | 0.00 | 0.00 | 50 | 1012.5 |
| 20260508224825 | 94 | 267 | 2.0 | 7.0 | 0.00 | 0.00 | 0.00 | 50 | 1012.6 |
| 20260508224326 | 94 | 246 | 4.0 | 7.0 | 0.00 | 0.00 | 0.00 | 50 | 1012.5 |
| 20260508223824 | 94 | 255 | 3.0 | 7.0 | 0.00 | 0.00 | 0.00 | 50 | 1012.4 |
| 20260508223329 | 94 | 258 | 1.0 | 6.0 | 0.00 | 0.00 | 0.00 | 50 | 1012.4 |
| 20260508222829 | 94 | 250 | 2.0 | 6.0 | 0.00 | 0.00 | 0.00 | 48 | 1012.5 |
| 20260508222331 | 94 | 246 | 3.0 | 8.0 | 0.00 | 0.00 | 0.00 | 48 | 1012.5 |
| 20260508221903 | 94 | 290 | 4.0 | 8.0 | 0.00 | 0.00 | 0.00 | 47 | 1012.3 |
| 20260508221343 | 94 | 254 | 1.0 | 10.0 | 0.00 | 0.00 | 0.00 | 49 | 1012.3 |
| 20260508220824 | 94 | 245 | 5.0 | 10.0 | 0.00 | 0.00 | 0.00 | 49 | 1012.3 |
| 20260508220327 | 95 | 310 | 2.0 | 6.0 | 0.00 | 0.00 | 0.00 | 48 | 1012.3 |
| 20260508215855 | 94 | 269 | 3.0 | 9.0 | 0.00 | 0.00 | 0.00 | 48 | 1012.3 |
| 20260508215403 | 94 | 279 | 2.0 | 9.0 | 0.00 | 0.00 | 0.00 | 48 | 1012.4 |
| 20260508214845 | 95 | 251 | 3.0 | 7.0 | 0.00 | 0.00 | 0.00 | 47 | 1012.5 |
| 20260508214343 | 95 | 248 | 2.0 | 9.0 | 0.00 | 0.00 | 0.00 | 48 | 1012.5 |
| 20260508213843 | 95 | 245 | 3.0 | 10.0 | 0.00 | 0.00 | 0.00 | 48 | 1012.5 |
| 20260508213345 | 95 | 263 | 3.0 | 9.0 | 0.00 | 0.00 | 0.00 | 47 | 1012.4 |
| 20260508212848 | 94 | 264 | 1.0 | 5.0 | 0.00 | 0.00 | 0.00 | 48 | 1012.4 |
| 20260508212350 | 94 | 253 | 2.0 | 9.0 | 0.00 | 0.00 | 0.00 | 47 | 1012.4 |
| 20260508211851 | 95 | 246 | 3.0 | 10.0 | 0.00 | 0.00 | 0.00 | 47 | 1012.5 |
| 20260508211402 | 95 | 262 | 0.0 | 7.0 | 0.00 | 0.00 | 0.00 | 47 | 1012.5 |
| 20260508210841 | 95 | 275 | 2.0 | 7.0 | 0.00 | 0.00 | 0.00 | 48 | 1012.6 |
| 20260508210342 | 95 | 269 | 1.0 | 9.0 | 0.00 | 0.00 | 0.00 | 47 | 1012.6 |
| 20260508205912 | 95 | 260 | 3.0 | 9.0 | 0.00 | 0.00 | 0.00 | 46 | 1012.7 |
| 20260508205351 | 95 | 168 | 3.0 | 7.0 | 0.00 | 0.00 | 0.00 | 46 | 1012.7 |
| 20260508204847 | 96 | 158 | 2.0 | 6.0 | 0.00 | 0.00 | 0.00 | 46 | 1012.7 |
| 20260508204348 | 96 | 215 | 0.0 | 6.0 | 0.00 | 0.00 | 0.00 | 47 | 1012.7 |
| 20260508203849 | 95 | 250 | 1.0 | 10.0 | 0.00 | 0.00 | 0.00 | 47 | 1012.8 |
| 20260508203328 | 95 | 213 | 2.0 | 11.0 | 0.00 | 0.00 | 0.00 | 47 | 1012.9 |
| 20260508202829 | 96 | 238 | 6.0 | 10.0 | 0.00 | 0.00 | 0.00 | 47 | 1013.0 |
| 20260508202331 | 96 | 315 | 1.0 | 7.0 | 0.00 | 0.00 | 0.00 | 48 | 1013.0 |
| 20260508201830 | 95 | 163 | 1.0 | 11.0 | 0.00 | 0.00 | 0.00 | 47 | 1013.1 |
| 20260508201329 | 96 | 163 | 4.0 | 10.0 | 0.00 | 0.00 | 0.00 | 45 | 1013.3 |
| 20260508200827 | 96 | 228 | 2.0 | 10.0 | 0.00 | 0.00 | 0.00 | 45 | 1013.3 |
| 20260508200327 | 96 | 242 | 3.0 | 9.0 | 0.00 | 0.00 | 0.00 | 46 | 1013.4 |
| 20260508195826 | 96 | 308 | 5.0 | 9.0 | 0.00 | 0.00 | 0.00 | 46 | 1013.5 |
| 20260508195325 | 97 | 252 | 2.0 | 6.0 | 0.00 | 0.00 | 0.00 | 46 | 1013.6 |
| 20260508194848 | 96 | 130 | 2.0 | 5.0 | 0.00 | 0.00 | 0.00 | 46 | 1013.5 |
| 20260508194349 | 96 | 239 | 2.0 | 7.0 | 0.00 | 0.00 | 0.00 | 46 | 1013.6 |
| 20260508193830 | 96 | 286 | 2.0 | 8.0 | 0.00 | 0.00 | 0.00 | 45 | 1013.6 |
| 20260508193330 | 95 | 198 | 2.0 | 7.0 | 0.00 | 0.00 | 0.00 | 45 | 1013.8 |
| 20260508192827 | 95 | 242 | 2.0 | 8.0 | 0.00 | 0.00 | 0.00 | 47 | 1013.8 |
| 20260508192327 | 95 | 243 | 3.0 | 8.0 | 0.00 | 0.00 | 0.00 | 46 | 1013.8 |
| 20260508191828 | 96 | 273 | 1.0 | 8.0 | 0.00 | 0.00 | 0.00 | 49 | 1013.9 |
| 20260508191326 | 95 | 298 | 2.0 | 12.0 | 0.00 | 0.00 | 0.00 | 49 | 1014.0 |
| 20260508190853 | 96 | 231 | 6.0 | 12.0 | 0.00 | 0.00 | 0.00 | 49 | 1014.1 |
| 20260508190355 | 95 | 232 | 2.0 | 5.0 | 0.00 | 0.00 | 0.00 | 50 | 1014.2 |
| 20260508185848 | 95 | 225 | 1.0 | 7.0 | 0.00 | 0.00 | 0.00 | 51 | 1014.3 |
| 20260508185327 | 95 | 257 | 1.0 | 7.0 | 0.00 | 0.00 | 0.00 | 51 | 1014.4 |
| 20260508184828 | 94 | 213 | 2.0 | 8.0 | 0.00 | 0.00 | 0.00 | 51 | 1014.6 |
| 20260508184331 | 95 | 251 | 4.0 | 8.0 | 0.00 | 0.00 | 0.00 | 52 | 1014.7 |
| 20260508183832 | 95 | 238 | 3.0 | 8.0 | 0.00 | 0.00 | 0.00 | 51 | 1014.7 |
| 20260508183359 | 95 | 49 | 1.0 | 4.0 | 0.00 | 0.00 | 0.00 | 52 | 1014.8 |
| 20260508182908 | 94 | 138 | 1.0 | 8.0 | 0.00 | 0.00 | 0.00 | 52 | 1014.9 |
| 20260508182345 | 94 | 206 | 2.0 | 8.0 | 0.00 | 0.00 | 0.00 | 53 | 1015.0 |
| 20260508181849 | 93 | 232 | 2.0 | 8.0 | 0.00 | 0.00 | 0.00 | 53 | 1015.1 |
| 20260508181348 | 94 | 126 | 1.0 | 8.0 | 0.00 | 0.00 | 0.00 | 52 | 1015.2 |
| 20260508180849 | 94 | 261 | 2.0 | 6.0 | 0.00 | 0.00 | 0.00 | 52 | 1015.3 |
| 20260508180345 | 94 | 309 | 1.0 | 8.0 | 0.00 | 0.00 | 0.00 | 55 | 1015.3 |
| 20260508175844 | 93 | 15 | 2.0 | 8.0 | 0.00 | 0.00 | 0.00 | 53 | 1015.5 |
| 20260508175338 | 93 | 263 | 1.0 | 8.0 | 0.00 | 0.00 | 0.00 | 54 | 1015.6 |
| 20260508174838 | 92 | 207 | 2.0 | 8.0 | 0.00 | 0.00 | 0.00 | 54 | 1015.6 |
| 20260508174339 | 91 | 250 | 3.0 | 6.0 | 0.00 | 0.00 | 0.00 | 57 | 1015.6 |
| 20260508173840 | 90 | 11 | 2.0 | 6.0 | 0.00 | 0.00 | 0.00 | 56 | 1015.7 |
| 20260508173341 | 90 | 280 | 1.0 | 8.0 | 0.00 | 0.00 | 0.00 | 56 | 1015.8 |
| 20260508172910 | 90 | 275 | 5.0 | 8.0 | 0.00 | 0.00 | 0.00 | 55 | 1015.8 |
| 20260508172329 | 91 | 284 | 1.0 | 8.0 | 0.00 | 0.00 | 0.00 | 56 | 1015.9 |
| 20260508171832 | 91 | 187 | 3.0 | 8.0 | 0.00 | 0.00 | 0.00 | 55 | 1016.0 |
| 20260508171335 | 91 | 301 | 4.0 | 10.0 | 0.00 | 0.00 | 0.00 | 55 | 1016.1 |
| 20260508170835 | 92 | 281 | 3.0 | 10.0 | 0.00 | 0.00 | 0.00 | 54 | 1016.1 |
| 20260508170331 | 92 | 252 | 4.0 | 10.0 | 0.00 | 0.00 | 0.00 | 54 | 1016.1 |
| 20260508165829 | 91 | 248 | 4.0 | 8.0 | 0.00 | 0.00 | 0.00 | 54 | 1016.3 |
| 20260508165358 | 91 | 240 | 0.0 | 8.0 | 0.00 | 0.00 | 0.00 | 58 | 1016.3 |
| 20260508164905 | 90 | 349 | 3.0 | 8.0 | 0.00 | 0.00 | 0.00 | 58 | 1016.4 |
| 20260508164345 | 90 | 279 | 1.0 | 5.0 | 0.00 | 0.00 | 0.00 | 58 | 1016.5 |
| 20260508163847 | 90 | 239 | 2.0 | 8.0 | 0.00 | 0.00 | 0.00 | 59 | 1016.6 |
| 20260508163347 | 89 | 261 | 3.0 | 9.0 | 0.00 | 0.00 | 0.00 | 58 | 1016.6 |
| 20260508162851 | 89 | 309 | 6.0 | 9.0 | 0.00 | 0.00 | 0.00 | 58 | 1016.7 |
| 20260508162350 | 89 | 13 | 1.0 | 7.0 | 0.00 | 0.00 | 0.00 | 59 | 1016.8 |
| 20260508161832 | 88 | 259 | 3.0 | 7.0 | 0.00 | 0.00 | 0.00 | 62 | 1016.9 |
| 20260508161335 | 88 | 275 | 1.0 | 4.0 | 0.00 | 0.00 | 0.00 | 62 | 1017.0 |
| 20260508160837 | 88 | 309 | 2.0 | 9.0 | 0.00 | 0.00 | 0.00 | 62 | 1017.1 |
| 20260508160336 | 88 | 292 | 4.0 | 9.0 | 0.00 | 0.00 | 0.00 | 63 | 1017.2 |
| 20260508155835 | 87 | 243 | 3.0 | 7.0 | 0.00 | 0.00 | 0.00 | 63 | 1017.2 |
| 20260508155336 | 87 | 295 | 2.0 | 8.0 | 0.00 | 0.00 | 0.00 | 63 | 1017.2 |
| 20260508154905 | 87 | 276 | 4.0 | 8.0 | 0.00 | 0.00 | 0.00 | 64 | 1017.3 |
| 20260508154344 | 87 | 355 | 3.0 | 9.0 | 0.00 | 0.00 | 0.00 | 63 | 1017.3 |
| 20260508153827 | 87 | 286 | 4.0 | 9.0 | 0.00 | 0.00 | 0.00 | 64 | 1017.4 |
| 20260508153327 | 87 | 336 | 2.0 | 9.0 | 0.00 | 0.00 | 0.00 | 65 | 1017.4 |
| 20260508152827 | 86 | 324 | 3.0 | 9.0 | 0.00 | 0.00 | 0.00 | 67 | 1017.4 |
| 20260508152355 | 86 | 251 | 4.0 | 9.0 | 0.00 | 0.00 | 0.00 | 67 | 1017.4 |
| 20260508151859 | 86 | 274 | 2.0 | 10.0 | 0.00 | 0.00 | 0.00 | 68 | 1017.4 |
| 20260508151337 | 85 | 274 | 5.0 | 10.0 | 0.00 | 0.00 | 0.00 | 67 | 1017.6 |
| 20260508150836 | 85 | 265 | 3.0 | 11.0 | 0.00 | 0.00 | 0.00 | 69 | 1017.7 |
| 20260508150344 | 85 | 246 | 3.0 | 11.0 | 0.00 | 0.00 | 0.00 | 71 | 1017.6 |
| 20260508145845 | 84 | 261 | 6.0 | 10.0 | 0.00 | 0.00 | 0.00 | 70 | 1017.5 |
| 20260508145343 | 83 | 350 | 2.0 | 9.0 | 0.00 | 0.00 | 0.00 | 73 | 1017.4 |
| 20260508144842 | 83 | 251 | 4.0 | 9.0 | 0.00 | 0.00 | 0.00 | 74 | 1017.5 |
| 20260508144342 | 83 | 323 | 2.0 | 6.0 | 0.00 | 0.00 | 0.00 | 76 | 1017.5 |
| 20260508143842 | 82 | 307 | 2.0 | 10.0 | 0.00 | 0.00 | 0.00 | 76 | 1017.5 |
| 20260508143346 | 82 | 265 | 4.0 | 10.0 | 0.00 | 0.00 | 0.00 | 75 | 1017.6 |
| 20260508142826 | 83 | 254 | 3.0 | 8.0 | 0.00 | 0.00 | 0.00 | 76 | 1017.5 |
| 20260508142352 | 83 | 351 | 2.0 | 6.0 | 0.00 | 0.00 | 0.00 | 76 | 1017.5 |
| 20260508141914 | 82 | 249 | 2.0 | 7.0 | 0.00 | 0.00 | 0.00 | 77 | 1017.5 |
| 20260508141352 | 82 | 232 | 3.0 | 7.0 | 0.00 | 0.00 | 0.00 | 77 | 1017.5 |
| 20260508140829 | 81 | 302 | 2.0 | 7.0 | 0.00 | 0.00 | 0.00 | 79 | 1017.5 |
| 20260508140330 | 81 | 329 | 1.0 | 3.0 | 0.00 | 0.00 | 0.00 | 81 | 1017.5 |
| 20260508135829 | 81 | 5 | 0.0 | 3.0 | 0.00 | 0.00 | 0.00 | 81 | 1017.5 |
| 20260508135332 | 80 | 292 | 1.0 | 5.0 | 0.00 | 0.00 | 0.00 | 82 | 1017.4 |
| 20260508134831 | 80 | 317 | 2.0 | 6.0 | 0.00 | 0.00 | 0.00 | 82 | 1017.5 |
| 20260508134332 | 80 | 240 | 3.0 | 8.0 | 0.00 | 0.00 | 0.00 | 82 | 1017.6 |
| 20260508133833 | 80 | 259 | 3.0 | 8.0 | 0.00 | 0.00 | 0.00 | 82 | 1017.5 |
| 20260508133337 | 80 | 30 | 2.0 | 8.0 | 0.00 | 0.00 | 0.00 | 83 | 1017.6 |
| 20260508132835 | 79 | 348 | 2.0 | 8.0 | 0.00 | 0.00 | 0.00 | 84 | 1017.5 |
| 20260508132332 | 79 | 321 | 2.0 | 7.0 | 0.00 | 0.00 | 0.00 | 84 | 1017.5 |
| 20260508131902 | 79 | 345 | 2.0 | 7.0 | 0.00 | 0.00 | 0.00 | 84 | 1017.5 |
| 20260508131344 | 79 | 282 | 1.0 | 6.0 | 0.00 | 0.00 | 0.00 | 85 | 1017.4 |
| 20260508130846 | 79 | 242 | 1.0 | 6.0 | 0.00 | 0.00 | 0.00 | 85 | 1017.4 |
| 20260508130347 | 79 | 239 | 3.0 | 6.0 | 0.00 | 0.00 | 0.00 | 86 | 1017.4 |
| 20260508125849 | 79 | 333 | 1.0 | 5.0 | 0.00 | 0.00 | 0.00 | 86 | 1017.3 |
| 20260508125349 | 78 | 56 | 2.0 | 8.0 | 0.00 | 0.00 | 0.00 | 87 | 1017.3 |
| 20260508124852 | 78 | 317 | 2.0 | 8.0 | 0.00 | 0.00 | 0.00 | 87 | 1017.3 |
| 20260508124354 | 78 | 257 | 2.0 | 5.0 | 0.00 | 0.00 | 0.00 | 87 | 1017.3 |
| 20260508123855 | 78 | 236 | 3.0 | 4.0 | 0.00 | 0.00 | 0.00 | 87 | 1017.3 |
| 20260508123337 | 78 | 259 | 0.0 | 3.0 | 0.00 | 0.00 | 0.00 | 88 | 1017.2 |
| 20260508122836 | 78 | 254 | 0.0 | 3.0 | 0.00 | 0.00 | 0.00 | 88 | 1017.1 |
| 20260508122402 | 77 | 254 | 0.0 | 1.0 | 0.00 | 0.00 | 0.00 | 89 | 1017.1 |
| 20260508121842 | 77 | 264 | 0.0 | 2.0 | 0.00 | 0.00 | 0.00 | 89 | 1017.1 |
| 20260508121339 | 76 | 243 | 0.0 | 2.0 | 0.00 | 0.00 | 0.00 | 90 | 1017.0 |
| 20260508120911 | 76 | 249 | 0.0 | 2.0 | 0.00 | 0.00 | 0.00 | 91 | 1016.9 |
| 20260508120349 | 75 | 239 | 0.0 | 2.0 | 0.00 | 0.00 | 0.00 | 91 | 1017.0 |
| 20260508115852 | 75 | 257 | 0.0 | 0.0 | 0.00 | 0.00 | 0.00 | 91 | 1017.0 |
| 20260508115329 | 75 | 257 | 0.0 | 1.0 | 0.00 | 0.00 | 0.00 | 92 | 1016.9 |
| 20260508114830 | 74 | 246 | 0.0 | 1.0 | 0.00 | 0.00 | 0.00 | 92 | 1016.8 |
| 20260508114329 | 74 | 246 | 0.0 | 1.0 | 0.00 | 0.00 | 0.00 | 92 | 1016.7 |
| 20260508113831 | 74 | 246 | 0.0 | 0.0 | 0.00 | 0.00 | 0.00 | 92 | 1016.6 |
| 20260508113333 | 73 | 246 | 0.0 | 0.0 | 0.00 | 0.00 | 0.00 | 92 | 1016.6 |
| 20260508112832 | 73 | 246 | 0.0 | 0.0 | 0.00 | 0.00 | 0.00 | 92 | 1016.6 |
| 20260508112333 | 72 | 246 | 0.0 | 0.0 | 0.00 | 0.00 | 0.00 | 91 | 1016.5 |
| 20260508111836 | 72 | 246 | 0.0 | 0.0 | 0.00 | 0.00 | 0.00 | 91 | 1016.5 |
| 20260508111339 | 72 | 246 | 0.0 | 0.0 | 0.00 | 0.00 | 0.00 | 91 | 1016.5 |
| 20260508110837 | 72 | 246 | 0.0 | 0.0 | 0.00 | 0.00 | 0.00 | 91 | 1016.4 |
| 20260508110336 | 72 | 250 | 0.0 | 0.0 | 0.00 | 0.00 | 0.00 | 90 | 1016.4 |
| 20260508105840 | 72 | 250 | 0.0 | 0.0 | 0.00 | 0.00 | 0.00 | 90 | 1016.3 |
| 20260508105339 | 72 | 250 | 0.0 | 0.0 | 0.00 | 0.00 | 0.00 | 90 | 1016.2 |
| 20260508104908 | 72 | 250 | 0.0 | 0.0 | 0.00 | 0.00 | 0.00 | 90 | 1016.2 |
| 20260508104350 | 72 | 250 | 0.0 | 0.0 | 0.00 | 0.00 | 0.00 | 89 | 1016.0 |
| 20260508103852 | 72 | 250 | 0.0 | 0.0 | 0.00 | 0.00 | 0.00 | 89 | 1015.9 |
| 20260508103354 | 72 | 250 | 0.0 | 0.0 | 0.00 | 0.00 | 0.00 | 89 | 1015.8 |
| 20260508102830 | 72 | 250 | 0.0 | 0.0 | 0.00 | 0.00 | 0.00 | 90 | 1015.6 |
| 20260508102334 | 72 | 250 | 0.0 | 0.0 | 0.00 | 0.00 | 0.00 | 90 | 1015.6 |
| 20260508101833 | 72 | 250 | 0.0 | 0.0 | 0.00 | 0.00 | 0.00 | 90 | 1015.5 |
| 20260508101331 | 72 | 250 | 0.0 | 0.0 | 0.00 | 0.00 | 0.00 | 90 | 1015.5 |
| 20260508100859 | 72 | 250 | 0.0 | 0.0 | 0.00 | 0.00 | 0.00 | 90 | 1015.5 |
| 20260508100340 | 72 | 250 | 0.0 | 0.0 | 0.00 | 0.00 | 0.00 | 90 | 1015.4 |
| 20260508095851 | 73 | 250 | 0.0 | 0.0 | 0.00 | 0.00 | 0.00 | 90 | 1015.3 |
| 20260508095352 | 73 | 250 | 0.0 | 0.0 | 0.00 | 0.00 | 0.00 | 89 | 1015.3 |
| 20260508094852 | 73 | 250 | 0.0 | 0.0 | 0.00 | 0.00 | 0.00 | 89 | 1015.2 |
| 20260508094352 | 73 | 250 | 0.0 | 0.0 | 0.00 | 0.00 | 0.00 | 89 | 1015.2 |
| 20260508093831 | 73 | 250 | 0.0 | 0.0 | 0.00 | 0.00 | 0.00 | 89 | 1015.1 |
| 20260508093328 | 73 | 250 | 0.0 | 0.0 | 0.00 | 0.00 | 0.00 | 89 | 1015.1 |
| 20260508092827 | 73 | 250 | 0.0 | 0.0 | 0.00 | 0.00 | 0.00 | 89 | 1015.1 |
| 20260508092356 | 73 | 250 | 0.0 | 0.0 | 0.00 | 0.00 | 0.00 | 89 | 1015.2 |
| 20260508091904 | 73 | 251 | 0.0 | 0.0 | 0.00 | 0.00 | 0.00 | 89 | 1015.2 |
| 20260508091411 | 73 | 250 | 0.0 | 0.0 | 0.00 | 0.00 | 0.00 | 89 | 1015.2 |
| 20260508090848 | 73 | 250 | 0.0 | 0.0 | 0.00 | 0.00 | 0.00 | 89 | 1015.2 |
| 20260508090327 | 73 | 250 | 0.0 | 0.0 | 0.00 | 0.00 | 0.00 | 89 | 1015.2 |
| 20260508085825 | 73 | 250 | 0.0 | 0.0 | 0.00 | 0.00 | 0.00 | 90 | 1015.2 |
| 20260508085326 | 74 | 250 | 0.0 | 0.0 | 0.00 | 0.00 | 0.00 | 90 | 1015.2 |
| 20260508084909 | 74 | 250 | 0.0 | 0.0 | 0.00 | 0.00 | 0.00 | 90 | 1015.3 |
| 20260508084348 | 74 | 251 | 0.0 | 0.0 | 0.00 | 0.00 | 0.00 | 90 | 1015.3 |
| 20260508083828 | 74 | 250 | 0.0 | 1.0 | 0.00 | 0.00 | 0.00 | 90 | 1015.2 |
| 20260508083328 | 74 | 250 | 0.0 | 1.0 | 0.00 | 0.00 | 0.00 | 90 | 1015.3 |
| 20260508082828 | 74 | 250 | 0.0 | 1.0 | 0.00 | 0.00 | 0.00 | 89 | 1015.3 |
| 20260508082351 | 73 | 253 | 0.0 | 1.0 | 0.00 | 0.00 | 0.00 | 89 | 1015.3 |
| 20260508081851 | 74 | 253 | 0.0 | 1.0 | 0.00 | 0.00 | 0.00 | 89 | 1015.3 |
| 20260508081353 | 73 | 296 | 0.0 | 1.0 | 0.00 | 0.00 | 0.00 | 89 | 1015.2 |
| 20260508080832 | 73 | 296 | 0.0 | 0.0 | 0.00 | 0.00 | 0.00 | 89 | 1015.3 |
| 20260508080335 | 73 | 296 | 0.0 | 0.0 | 0.00 | 0.00 | 0.00 | 88 | 1015.2 |
| 20260508075858 | 73 | 296 | 0.0 | 0.0 | 0.00 | 0.00 | 0.00 | 88 | 1015.3 |
| 20260508075405 | 73 | 296 | 0.0 | 0.0 | 0.00 | 0.00 | 0.00 | 88 | 1015.2 |
| 20260508074912 | 73 | 296 | 0.0 | 0.0 | 0.00 | 0.00 | 0.00 | 88 | 1015.3 |
| 20260508074352 | 74 | 296 | 0.0 | 0.0 | 0.00 | 0.00 | 0.00 | 88 | 1015.3 |
| 20260508073852 | 74 | 296 | 0.0 | 0.0 | 0.00 | 0.00 | 0.00 | 88 | 1015.4 |
| 20260508073334 | 74 | 296 | 0.0 | 1.0 | 0.00 | 0.00 | 0.00 | 88 | 1015.3 |
| 20260508072835 | 74 | 296 | 0.0 | 1.0 | 0.00 | 0.00 | 0.00 | 88 | 1015.3 |
| 20260508072338 | 74 | 296 | 0.0 | 2.0 | 0.00 | 0.00 | 0.00 | 88 | 1015.3 |
| 20260508071840 | 74 | 298 | 0.0 | 2.0 | 0.00 | 0.00 | 0.00 | 88 | 1015.3 |
| 20260508071339 | 74 | 272 | 0.0 | 2.0 | 0.00 | 0.00 | 0.00 | 87 | 1015.4 |
| 20260508070837 | 74 | 258 | 0.0 | 0.0 | 0.00 | 0.00 | 0.00 | 87 | 1015.3 |
| 20260508070340 | 74 | 258 | 0.0 | 0.0 | 0.00 | 0.00 | 0.00 | 87 | 1015.4 |
| 20260508065837 | 74 | 258 | 0.0 | 1.0 | 0.00 | 0.00 | 0.00 | 87 | 1015.4 |
| 20260508065337 | 74 | 250 | 0.0 | 1.0 | 0.00 | 0.00 | 0.00 | 87 | 1015.3 |
| 20260508064838 | 74 | 248 | 0.0 | 2.0 | 0.00 | 0.00 | 0.00 | 87 | 1015.4 |
| 20260508064339 | 74 | 248 | 0.0 | 2.0 | 0.00 | 0.00 | 0.00 | 87 | 1015.4 |
| 20260508063839 | 74 | 257 | 1.0 | 2.0 | 0.00 | 0.00 | 0.00 | 87 | 1015.5 |
| 20260508063341 | 74 | 279 | 0.0 | 1.0 | 0.00 | 0.00 | 0.00 | 87 | 1015.5 |
| 20260508062847 | 74 | 282 | 0.0 | 2.0 | 0.00 | 0.00 | 0.00 | 86 | 1015.6 |
| 20260508062346 | 74 | 290 | 0.0 | 2.0 | 0.00 | 0.00 | 0.00 | 86 | 1015.6 |
| 20260508061848 | 75 | 340 | 0.0 | 2.0 | 0.00 | 0.00 | 0.00 | 86 | 1015.6 |
| 20260508061350 | 75 | 296 | 0.0 | 3.0 | 0.00 | 0.00 | 0.00 | 86 | 1015.6 |
| 20260508060850 | 75 | 251 | 0.0 | 2.0 | 0.00 | 0.00 | 0.00 | 85 | 1015.6 |
| 20260508060348 | 75 | 247 | 0.0 | 2.0 | 0.00 | 0.00 | 0.00 | 85 | 1015.6 |
| 20260508055848 | 75 | 238 | 0.0 | 3.0 | 0.00 | 0.00 | 0.00 | 85 | 1015.7 |
| 20260508055347 | 75 | 235 | 0.0 | 3.0 | 0.00 | 0.00 | 0.00 | 85 | 1015.8 |
| 20260508054827 | 75 | 251 | 0.0 | 2.0 | 0.00 | 0.00 | 0.00 | 84 | 1015.9 |
| 20260508054328 | 75 | 242 | 0.0 | 2.0 | 0.00 | 0.00 | 0.00 | 84 | 1015.8 |
| 20260508053827 | 75 | 244 | 0.0 | 2.0 | 0.00 | 0.00 | 0.00 | 83 | 1015.9 |
| 20260508053330 | 75 | 257 | 0.0 | 2.0 | 0.00 | 0.00 | 0.00 | 83 | 1015.9 |
| 20260508052831 | 75 | 253 | 0.0 | 2.0 | 0.00 | 0.00 | 0.00 | 83 | 1016.0 |
| 20260508052340 | 75 | 248 | 0.0 | 3.0 | 0.00 | 0.00 | 0.00 | 82 | 1015.9 |
| 20260508051843 | 75 | 269 | 0.0 | 3.0 | 0.00 | 0.00 | 0.00 | 82 | 1015.9 |
| 20260508051344 | 76 | 262 | 0.0 | 3.0 | 0.00 | 0.00 | 0.00 | 82 | 1016.0 |
| 20260508050845 | 76 | 284 | 1.0 | 3.0 | 0.00 | 0.00 | 0.00 | 82 | 1016.0 |
| 20260508050343 | 76 | 242 | 1.0 | 3.0 | 0.00 | 0.00 | 0.00 | 81 | 1016.0 |
| 20260508045843 | 76 | 250 | 1.0 | 4.0 | 0.00 | 0.00 | 0.00 | 81 | 1016.0 |
| 20260508045343 | 76 | 263 | 1.0 | 4.0 | 0.00 | 0.00 | 0.00 | 80 | 1016.0 |
| 20260508044846 | 76 | 240 | 1.0 | 3.0 | 0.00 | 0.00 | 0.00 | 80 | 1016.0 |
| 20260508044346 | 76 | 267 | 0.0 | 3.0 | 0.00 | 0.00 | 0.00 | 79 | 1016.1 |
| 20260508043848 | 76 | 259 | 1.0 | 3.0 | 0.00 | 0.00 | 0.00 | 79 | 1016.1 |
| 20260508043357 | 76 | 275 | 0.0 | 4.0 | 0.00 | 0.00 | 0.00 | 79 | 1016.2 |
| 20260508042835 | 76 | 273 | 1.0 | 4.0 | 0.00 | 0.00 | 0.00 | 78 | 1016.2 |
| 20260508042336 | 76 | 321 | 1.0 | 3.0 | 0.00 | 0.00 | 0.00 | 78 | 1016.1 |
| 20260508041906 | 77 | 257 | 1.0 | 4.0 | 0.00 | 0.00 | 0.00 | 77 | 1016.1 |
| 20260508041347 | 77 | 251 | 0.0 | 4.0 | 0.00 | 0.00 | 0.00 | 77 | 1016.1 |
| 20260508040843 | 77 | 231 | 1.0 | 3.0 | 0.00 | 0.00 | 0.00 | 77 | 1016.1 |
| 20260508040344 | 77 | 242 | 2.0 | 4.0 | 0.00 | 0.00 | 0.00 | 77 | 1016.2 |
| 20260508035842 | 77 | 248 | 0.0 | 4.0 | 0.00 | 0.00 | 0.00 | 76 | 1016.1 |
| 20260508035340 | 77 | 261 | 0.0 | 3.0 | 0.00 | 0.00 | 0.00 | 76 | 1016.2 |
| 20260508034841 | 77 | 272 | 0.0 | 5.0 | 0.00 | 0.00 | 0.00 | 76 | 1016.2 |
| 20260508034342 | 77 | 260 | 0.0 | 8.0 | 0.00 | 0.00 | 0.00 | 76 | 1016.1 |
| 20260508033843 | 77 | 331 | 1.0 | 8.0 | 0.00 | 0.00 | 0.00 | 75 | 1016.1 |